KVLD/VLD METAR and TAF weather

Enter ICAO airport designator
Station Type Date Time Source
KVLD METAR 2020/06/01 16:53 UTC NOAA

KVLD 011653Z 06010G17KT 10SM SCT031 BKN039 OVC075 28/20 A3015 RMK AO2 SLP215 T02830200 $


Station Type Date Time Source
KVLD Decoded METAR 2020/06/01 16:53 UTC NOAA

VALDOSTA REGIONAL AIRPORT, GA, United States (KVLD) 30-47N 083-16W
Jun 01, 2020 - 12:53 PM EDT / 2020.06.01 1653 UTC
Wind: from the ENE (060 degrees) at 12 MPH (10 KT) gusting to 20 MPH (17 KT):0
Visibility: 10 mile(s):0
Sky conditions: overcast
Temperature: 82.9 F (28.3 C)
Dew Point: 68.0 F (20.0 C)
Relative Humidity: 60%
Pressure (altimeter): 30.15 in. Hg (1020 hPa)
ob: KVLD 011653Z 06010G17KT 10SM SCT031 BKN039 OVC075 28/20 A3015 RMK AO2 SLP215 T02830200
cycle: 17

Station Type Date Time Source
KVLD TAF 2020/06/01 12:22 UTC NOAA

TAF KVLD 011120Z 0112/0212 02003KT P6SM BKN250
TEMPO 0112/0114 BKN004
FM011400 09010KT P6SM SCT050 BKN250

Example: see airport list